Time,TemperatureF,DewpointF,PressureIn,WindDirection,WindDirectionDegrees,WindSpeedMPH,WindSpeedGustMPH,Humidity,HourlyPrecipIn,Conditions,Clouds,dailyrainin,SoftwareType,DateUTC
2013-01-17 00:03:00,32.5,27.6,30.10,West,277,0.0,0.0,82,0.00,,,0.00,Wunderground v.1.15,2013-01-17 06:03:00,
2013-01-17 00:10:00,32.2,27.3,30.10,West,277,0.0,0.0,82,0.00,,,0.00,Wunderground v.1.15,2013-01-17 06:10:00,
2013-01-17 00:17:00,31.8,27.2,30.11,NW,306,0.0,0.0,83,0.00,,,0.00,Wunderground v.1.15,2013-01-17 06:17:00,
2013-01-17 00:23:00,31.8,27.5,30.11,NW,306,0.0,0.0,84,0.00,,,0.00,Wunderground v.1.15,2013-01-17 06:23:00,
2013-01-17 00:29:00,31.6,27.3,30.12,North,352,0.0,0.0,84,0.00,,,0.00,Wunderground v.1.15,2013-01-17 06:29:00,
2013-01-17 00:35:00,31.9,27.9,30.12,NNW,337,1.0,2.0,85,0.00,,,0.00,Wunderground v.1.15,2013-01-17 06:35:00,
2013-01-17 00:41:00,32.1,28.1,30.12,NNW,339,1.0,1.0,85,0.00,,,0.00,Wunderground v.1.15,2013-01-17 06:41:00,
2013-01-17 00:47:00,32.2,28.2,30.13,NNW,340,0.0,2.0,85,0.00,,,0.00,Wunderground v.1.15,2013-01-17 06:47:00,
2013-01-17 00:53:00,32.6,28.9,30.13,North,357,1.0,2.0,86,0.00,,,0.00,Wunderground v.1.15,2013-01-17 06:53:00,
2013-01-17 00:59:00,33.2,29.5,30.14,NNW,347,1.0,2.0,86,0.00,,,0.00,Wunderground v.1.15,2013-01-17 06:59:00,
2013-01-17 01:05:00,33.2,29.5,30.14,North,353,1.0,1.0,86,0.00,,,0.00,Wunderground v.1.15,2013-01-17 07:05:00,
2013-01-17 01:11:00,33.4,29.9,30.14,North,0,1.0,1.0,87,0.00,,,0.00,Wunderground v.1.15,2013-01-17 07:11:00,
2013-01-17 01:17:00,33.4,29.9,30.15,NNW,340,1.0,1.0,87,0.00,,,0.00,Wunderground v.1.15,2013-01-17 07:17:00,
2013-01-17 01:23:00,33.4,29.9,30.15,NW,326,1.0,2.0,87,0.00,,,0.00,Wunderground v.1.15,2013-01-17 07:23:00,
2013-01-17 01:30:00,33.4,29.9,30.16,NNW,344,2.0,3.0,87,0.00,,,0.00,Wunderground v.1.15,2013-01-17 07:30:00,
2013-01-17 01:35:00,33.4,29.9,30.16,North,0,2.0,3.0,87,0.00,,,0.00,Wunderground v.1.15,2013-01-17 07:35:00,
2013-01-17 01:41:00,33.2,29.2,30.16,North,354,1.0,1.0,85,0.00,,,0.00,Wunderground v.1.15,2013-01-17 07:41:00,
2013-01-17 01:47:00,33.1,28.8,30.16,NNW,332,1.0,1.0,84,0.00,,,0.00,Wunderground v.1.15,2013-01-17 07:47:00,
2013-01-17 01:53:00,32.9,28.6,30.16,North,0,0.0,2.0,84,0.00,,,0.00,Wunderground v.1.15,2013-01-17 07:53:00,
2013-01-17 02:00:00,33.1,28.8,30.16,NNW,347,1.0,1.0,84,0.00,,,0.00,Wunderground v.1.15,2013-01-17 08:00:00,
2013-01-17 02:07:00,33.1,28.8,30.16,North,4,0.0,1.0,84,0.00,,,0.00,Wunderground v.1.15,2013-01-17 08:07:00,
2013-01-17 02:13:00,33.2,28.9,30.16,North,6,1.0,1.0,84,0.00,,,0.00,Wunderground v.1.15,2013-01-17 08:13:00,
2013-01-17 02:21:00,33.5,29.2,30.17,North,349,1.0,2.0,84,0.00,,,0.00,Wunderground v.1.15,2013-01-17 08:21:00,
2013-01-17 02:27:00,33.7,29.4,30.17,North,349,0.0,2.0,84,0.00,,,0.00,Wunderground v.1.15,2013-01-17 08:27:00,
2013-01-17 02:33:00,33.8,29.5,30.18,North,0,0.0,2.0,84,0.00,,,0.00,Wunderground v.1.15,2013-01-17 08:33:00,
2013-01-17 02:39:00,33.8,29.2,30.18,NNE,13,2.0,5.0,83,0.00,,,0.00,Wunderground v.1.15,2013-01-17 08:39:00,
2013-01-17 02:47:00,33.8,28.9,30.19,NNW,335,1.0,4.0,82,0.00,,,0.00,Wunderground v.1.15,2013-01-17 08:47:00,
2013-01-17 02:53:00,33.8,28.9,30.19,North,356,1.0,1.0,82,0.00,,,0.00,Wunderground v.1.15,2013-01-17 08:53:00,
2013-01-17 02:59:00,33.8,28.9,30.19,North,0,1.0,2.0,82,0.00,,,0.00,Wunderground v.1.15,2013-01-17 08:59:00,
2013-01-17 03:05:00,33.7,28.8,30.19,NNW,346,1.0,1.0,82,0.00,,,0.00,Wunderground v.1.15,2013-01-17 09:05:00,
2013-01-17 03:11:00,33.7,28.8,30.19,NNW,343,0.0,0.0,82,0.00,,,0.00,Wunderground v.1.15,2013-01-17 09:11:00,
2013-01-17 03:17:00,33.5,28.3,30.20,NNW,340,1.0,5.0,81,0.00,,,0.00,Wunderground v.1.15,2013-01-17 09:17:00,
2013-01-17 03:23:00,33.4,28.2,30.20,NNW,330,1.0,2.0,81,0.00,,,0.00,Wunderground v.1.15,2013-01-17 09:23:00,
2013-01-17 03:29:00,33.2,28.0,30.20,NNW,339,0.0,2.0,81,0.00,,,0.00,Wunderground v.1.15,2013-01-17 09:29:00,
2013-01-17 03:35:00,33.1,27.9,30.20,North,353,0.0,0.0,81,0.00,,,0.00,Wunderground v.1.15,2013-01-17 09:35:00,
2013-01-17 03:41:00,32.9,27.7,30.20,North,359,1.0,2.0,81,0.00,,,0.00,Wunderground v.1.15,2013-01-17 09:41:00,
2013-01-17 03:47:00,32.6,27.1,30.21,North,0,2.0,3.0,80,0.00,,,0.00,Wunderground v.1.15,2013-01-17 09:47:00,
2013-01-17 03:53:00,32.2,26.7,30.21,North,6,1.0,1.0,80,0.00,,,0.00,Wunderground v.1.15,2013-01-17 09:53:00,
2013-01-17 03:59:00,31.6,26.1,30.22,North,359,1.0,2.0,80,0.00,,,0.00,Wunderground v.1.15,2013-01-17 09:59:00,
2013-01-17 04:05:00,31.2,25.7,30.22,North,0,1.0,2.0,80,0.00,,,0.00,Wunderground v.1.15,2013-01-17 10:05:00,
2013-01-17 04:11:00,30.7,25.3,30.22,NNW,346,1.0,1.0,80,0.00,,,0.00,Wunderground v.1.15,2013-01-17 10:11:00,
2013-01-17 04:17:00,30.3,25.2,30.23,NW,323,1.0,6.0,81,0.00,,,0.00,Wunderground v.1.15,2013-01-17 10:17:00,
2013-01-17 04:23:00,29.8,24.7,30.23,NNW,328,1.0,4.0,81,0.00,,,0.00,Wunderground v.1.15,2013-01-17 10:23:00,
2013-01-17 04:29:00,29.4,24.3,30.24,North,6,2.0,4.0,81,0.00,,,0.00,Wunderground v.1.15,2013-01-17 10:29:00,
2013-01-17 04:35:00,28.9,23.5,30.24,North,359,2.0,2.0,80,0.00,,,0.00,Wunderground v.1.15,2013-01-17 10:35:00,
2013-01-17 04:41:00,28.7,23.3,30.24,North,359,1.0,1.0,80,0.00,,,0.00,Wunderground v.1.15,2013-01-17 10:41:00,
2013-01-17 04:47:00,28.4,23.0,30.25,NNW,347,1.0,2.0,80,0.00,,,0.00,Wunderground v.1.15,2013-01-17 10:47:00,
2013-01-17 04:53:00,28.2,22.8,30.25,North,3,0.0,2.0,80,0.00,,,0.00,Wunderground v.1.15,2013-01-17 10:53:00,
2013-01-17 05:00:00,27.9,22.8,30.26,North,359,0.0,1.0,81,0.00,,,0.00,Wunderground v.1.15,2013-01-17 11:00:00,
2013-01-17 05:07:00,27.5,22.7,30.26,NNE,14,0.0,1.0,82,0.00,,,0.00,Wunderground v.1.15,2013-01-17 11:07:00,
2013-01-17 05:13:00,27.3,22.5,30.26,North,0,0.0,0.0,82,0.00,,,0.00,Wunderground v.1.15,2013-01-17 11:13:00,
2013-01-17 05:21:00,27.0,22.5,30.27,North,1,0.0,0.0,83,0.00,,,0.00,Wunderground v.1.15,2013-01-17 11:21:00,
2013-01-17 05:27:00,26.6,22.1,30.27,NNW,330,0.0,1.0,83,0.00,,,0.00,Wunderground v.1.15,2013-01-17 11:27:00,
2013-01-17 05:33:00,26.4,22.2,30.28,North,0,1.0,1.0,84,0.00,,,0.00,Wunderground v.1.15,2013-01-17 11:33:00,
2013-01-17 05:40:00,26.0,21.5,30.28,North,0,1.0,1.0,83,0.00,,,0.00,Wunderground v.1.15,2013-01-17 11:40:00,
2013-01-17 05:45:00,25.7,21.3,30.29,North,0,0.0,3.0,83,0.00,,,0.00,Wunderground v.1.15,2013-01-17 11:45:00,
2013-01-17 05:51:00,25.5,21.1,30.29,NNW,343,0.0,2.0,83,0.00,,,0.00,Wunderground v.1.15,2013-01-17 11:51:00,
2013-01-17 05:57:00,25.2,20.5,30.29,North,354,1.0,2.0,82,0.00,,,0.00,Wunderground v.1.15,2013-01-17 11:57:00,
2013-01-17 06:03:00,25.1,20.4,30.30,NNW,339,0.0,1.0,82,0.00,,,0.00,Wunderground v.1.15,2013-01-17 12:03:00,
2013-01-17 06:11:00,24.8,20.1,30.30,NNE,20,0.0,0.0,82,0.00,,,0.00,Wunderground v.1.15,2013-01-17 12:11:00,
2013-01-17 06:17:00,24.7,19.7,30.31,NW,316,0.0,0.0,81,0.00,,,0.00,Wunderground v.1.15,2013-01-17 12:17:00,
2013-01-17 06:23:00,24.5,19.5,30.31,NNW,342,1.0,5.0,81,0.00,,,0.00,Wunderground v.1.15,2013-01-17 12:23:00,
2013-01-17 06:29:00,24.4,19.4,30.32,North,0,1.0,5.0,81,0.00,,,0.00,Wunderground v.1.15,2013-01-17 12:29:00,
2013-01-17 06:37:00,24.2,18.9,30.32,NNW,329,1.0,3.0,80,0.00,,,0.00,Wunderground v.1.15,2013-01-17 12:37:00,
2013-01-17 06:43:00,24.1,18.8,30.32,North,357,1.0,1.0,80,0.00,,,0.00,Wunderground v.1.15,2013-01-17 12:43:00,
2013-01-17 06:49:00,23.8,18.5,30.33,NNW,329,0.0,3.0,80,0.00,,,0.00,Wunderground v.1.15,2013-01-17 12:49:00,
2013-01-17 06:55:00,23.6,18.0,30.33,NNW,339,0.0,3.0,79,0.00,,,0.00,Wunderground v.1.15,2013-01-17 12:55:00,
2013-01-17 07:01:00,23.5,17.9,30.33,NNW,337,1.0,1.0,79,0.00,,,0.00,Wunderground v.1.15,2013-01-17 13:01:00,
2013-01-17 07:07:00,23.3,18.0,30.33,NNW,347,0.0,1.0,80,0.00,,,0.00,Wunderground v.1.15,2013-01-17 13:07:00,
2013-01-17 07:13:00,23.0,17.7,30.33,NNW,328,0.0,0.0,80,0.00,,,0.00,Wunderground v.1.15,2013-01-17 13:13:00,
2013-01-17 07:20:00,22.9,17.7,30.33,North,354,1.0,2.0,80,0.00,,,0.00,Wunderground v.1.15,2013-01-17 13:20:00,
2013-01-17 07:27:00,22.6,17.4,30.33,NW,315,0.0,1.0,80,0.00,,,0.00,Wunderground v.1.15,2013-01-17 13:27:00,
2013-01-17 07:33:00,22.4,17.2,30.34,NNW,344,0.0,0.0,80,0.00,,,0.00,Wunderground v.1.15,2013-01-17 13:33:00,
2013-01-17 07:39:00,22.3,17.1,30.34,North,0,0.0,0.0,80,0.00,,,0.00,Wunderground v.1.15,2013-01-17 13:39:00,
2013-01-17 07:45:00,22.1,16.3,30.35,North,359,0.0,0.0,78,0.00,,,0.00,Wunderground v.1.15,2013-01-17 13:45:00,
2013-01-17 07:51:00,22.1,15.7,30.35,NNW,332,1.0,1.0,76,0.00,,,0.00,Wunderground v.1.15,2013-01-17 13:51:00,
2013-01-17 07:57:00,22.1,15.4,30.35,NW,323,1.0,1.0,75,0.00,,,0.00,Wunderground v.1.15,2013-01-17 13:57:00,
2013-01-17 08:03:00,22.1,15.1,30.35,NNW,344,0.0,0.0,74,0.00,,,0.00,Wunderground v.1.15,2013-01-17 14:03:00,
2013-01-17 08:09:00,22.1,14.8,30.35,North,0,1.0,5.0,73,0.00,,,0.00,Wunderground v.1.15,2013-01-17 14:09:00,
2013-01-17 08:15:00,22.3,15.0,30.35,NNW,344,1.0,2.0,73,0.00,,,0.00,Wunderground v.1.15,2013-01-17 14:15:00,
2013-01-17 08:21:00,22.4,14.7,30.35,North,357,0.0,0.0,72,0.00,,,0.00,Wunderground v.1.15,2013-01-17 14:21:00,
2013-01-17 08:27:00,22.4,14.1,30.35,NNW,339,1.0,1.0,70,0.00,,,0.00,Wunderground v.1.15,2013-01-17 14:27:00,
2013-01-17 08:33:00,22.7,14.1,30.37,NNW,346,0.0,1.0,69,0.00,,,0.00,Wunderground v.1.15,2013-01-17 14:33:00,
2013-01-17 08:39:00,23.0,13.7,30.37,North,0,1.0,1.0,67,0.00,,,0.00,Wunderground v.1.15,2013-01-17 14:39:00,
2013-01-17 08:45:00,23.5,13.1,30.37,North,359,0.0,1.0,64,0.00,,,0.00,Wunderground v.1.15,2013-01-17 14:45:00,
2013-01-17 08:51:00,23.8,13.0,30.37,NNW,333,0.0,0.0,63,0.00,,,0.00,Wunderground v.1.15,2013-01-17 14:51:00,
2013-01-17 08:57:00,24.1,12.9,30.37,NNW,346,1.0,3.0,62,0.00,,,0.00,Wunderground v.1.15,2013-01-17 14:57:00,
2013-01-17 09:03:00,24.2,13.0,30.38,North,349,4.0,4.0,62,0.00,,,0.00,Wunderground v.1.15,2013-01-17 15:03:00,
2013-01-17 09:09:00,24.5,13.3,30.38,North,0,3.0,4.0,62,0.00,,,0.00,Wunderground v.1.15,2013-01-17 15:09:00,
2013-01-17 09:17:00,25.0,13.8,30.38,North,359,2.0,8.0,62,0.00,,,0.00,Wunderground v.1.15,2013-01-17 15:17:00,
2013-01-17 09:23:00,25.0,13.8,30.38,NNW,340,2.0,5.0,62,0.00,,,0.00,Wunderground v.1.15,2013-01-17 15:23:00,
2013-01-17 09:31:00,25.2,13.6,30.39,NNW,332,3.0,4.0,61,0.00,,,0.00,Wunderground v.1.15,2013-01-17 15:31:00,
2013-01-17 09:37:00,25.7,13.3,30.39,NW,319,3.0,5.0,59,0.00,,,0.00,Wunderground v.1.15,2013-01-17 15:37:00,
2013-01-17 09:43:00,25.8,13.0,30.39,NW,316,3.0,5.0,58,0.00,,,0.00,Wunderground v.1.15,2013-01-17 15:43:00,
2013-01-17 09:49:00,26.1,12.1,30.39,NNW,347,4.0,7.0,55,0.00,,,0.00,Wunderground v.1.15,2013-01-17 15:49:00,
2013-01-17 09:55:00,26.4,12.4,30.39,North,4,3.0,6.0,55,0.00,,,0.00,Wunderground v.1.15,2013-01-17 15:55:00,
2013-01-17 10:01:00,26.7,12.3,30.41,NNW,339,3.0,3.0,54,0.00,,,0.00,Wunderground v.1.15,2013-01-17 16:01:00,
2013-01-17 10:07:00,26.6,10.9,30.41,NNW,332,3.0,7.0,51,0.00,,,0.00,Wunderground v.1.15,2013-01-17 16:07:00,
2013-01-17 10:13:00,26.6,10.9,30.41,NW,308,5.0,5.0,51,0.00,,,0.00,Wunderground v.1.15,2013-01-17 16:13:00,
2013-01-17 10:20:00,26.6,10.9,30.41,North,353,3.0,5.0,51,0.00,,,0.00,Wunderground v.1.15,2013-01-17 16:20:00,
2013-01-17 10:25:00,26.7,11.0,30.41,NNW,344,3.0,3.0,51,0.00,,,0.00,Wunderground v.1.15,2013-01-17 16:25:00,
2013-01-17 10:31:00,26.4,9.8,30.42,NNW,339,4.0,7.0,49,0.00,,,0.00,Wunderground v.1.15,2013-01-17 16:31:00,
2013-01-17 10:37:00,26.4,10.7,30.42,North,0,3.0,7.0,51,0.00,,,0.00,Wunderground v.1.15,2013-01-17 16:37:00,
2013-01-17 10:43:00,26.7,11.0,30.42,NNW,333,2.0,3.0,51,0.00,,,0.00,Wunderground v.1.15,2013-01-17 16:43:00,
2013-01-17 10:49:00,26.9,11.2,30.42,North,354,2.0,5.0,51,0.00,,,0.00,Wunderground v.1.15,2013-01-17 16:49:00,
2013-01-17 10:55:00,27.0,12.1,30.42,NNW,344,1.0,2.0,53,0.00,,,0.00,Wunderground v.1.15,2013-01-17 16:55:00,
2013-01-17 11:01:00,27.2,11.9,30.42,North,357,1.0,1.0,52,0.00,,,0.00,Wunderground v.1.15,2013-01-17 17:01:00,
2013-01-17 11:07:00,27.3,12.0,30.42,North,356,2.0,6.0,52,0.00,,,0.00,Wunderground v.1.15,2013-01-17 17:07:00,
2013-01-17 11:13:00,27.3,11.5,30.42,NNW,344,2.0,3.0,51,0.00,,,0.00,Wunderground v.1.15,2013-01-17 17:13:00,
2013-01-17 11:19:00,27.5,11.7,30.41,North,350,2.0,3.0,51,0.00,,,0.00,Wunderground v.1.15,2013-01-17 17:19:00,
2013-01-17 11:25:00,27.8,12.0,30.41,NNW,344,1.0,5.0,51,0.00,,,0.00,Wunderground v.1.15,2013-01-17 17:25:00,
2013-01-17 11:31:00,28.1,12.7,30.41,NNW,343,1.0,2.0,52,0.00,,,0.00,Wunderground v.1.15,2013-01-17 17:31:00,
2013-01-17 11:37:00,28.2,11.5,30.41,North,0,1.0,2.0,49,0.00,,,0.00,Wunderground v.1.15,2013-01-17 17:37:00,
2013-01-17 11:43:00,28.5,12.2,30.41,North,0,1.0,1.0,50,0.00,,,0.00,Wunderground v.1.15,2013-01-17 17:43:00,
2013-01-17 11:50:00,28.5,11.3,30.41,North,354,1.0,2.0,48,0.00,,,0.00,Wunderground v.1.15,2013-01-17 17:50:00,
2013-01-17 11:55:00,28.5,12.2,30.41,NW,322,2.0,2.0,50,0.00,,,0.00,Wunderground v.1.15,2013-01-17 17:55:00,
2013-01-17 12:01:00,28.8,12.5,30.40,NW,325,1.0,1.0,50,0.00,,,0.00,Wunderground v.1.15,2013-01-17 18:01:00,
2013-01-17 12:07:00,29.1,13.2,30.40,NNW,333,0.0,3.0,51,0.00,,,0.00,Wunderground v.1.15,2013-01-17 18:07:00,
2013-01-17 12:13:00,29.2,12.4,30.40,North,4,1.0,1.0,49,0.00,,,0.00,Wunderground v.1.15,2013-01-17 18:13:00,
2013-01-17 12:19:00,29.7,13.3,30.40,NNW,346,1.0,1.0,50,0.00,,,0.00,Wunderground v.1.15,2013-01-17 18:19:00,
2013-01-17 12:25:00,30.0,13.6,30.40,NNW,333,2.0,6.0,50,0.00,,,0.00,Wunderground v.1.15,2013-01-17 18:25:00,
2013-01-17 12:31:00,30.1,12.7,30.39,North,359,3.0,3.0,48,0.00,,,0.00,Wunderground v.1.15,2013-01-17 18:31:00,
2013-01-17 12:37:00,30.0,13.1,30.39,WNW,299,2.0,3.0,49,0.00,,,0.00,Wunderground v.1.15,2013-01-17 18:37:00,
2013-01-17 12:43:00,30.1,12.7,30.39,NNW,346,1.0,1.0,48,0.00,,,0.00,Wunderground v.1.15,2013-01-17 18:43:00,
2013-01-17 12:50:00,30.7,15.1,30.39,North,359,0.0,1.0,52,0.00,,,0.00,Wunderground v.1.15,2013-01-17 18:50:00,
2013-01-17 12:55:00,31.0,14.0,30.39,North,359,1.0,1.0,49,0.00,,,0.00,Wunderground v.1.15,2013-01-17 18:55:00,
2013-01-17 13:01:00,31.2,15.2,30.39,NNW,332,0.0,0.0,51,0.00,,,0.00,Wunderground v.1.15,2013-01-17 19:01:00,
2013-01-17 13:11:00,31.8,14.8,30.39,NNW,329,1.0,1.0,49,0.00,,,0.00,Wunderground v.1.15,2013-01-17 19:11:00,
2013-01-17 13:17:00,32.1,16.0,30.39,North,0,0.0,1.0,51,0.00,,,0.00,Wunderground v.1.15,2013-01-17 19:17:00,
2013-01-17 13:23:00,32.2,16.1,30.39,North,0,0.0,1.0,51,0.00,,,0.00,Wunderground v.1.15,2013-01-17 19:23:00,
2013-01-17 13:30:00,32.5,15.4,30.38,NW,320,1.0,2.0,49,0.00,,,0.00,Wunderground v.1.15,2013-01-17 19:30:00,
2013-01-17 13:35:00,32.5,15.4,30.38,NNW,333,1.0,2.0,49,0.00,,,0.00,Wunderground v.1.15,2013-01-17 19:35:00,
2013-01-17 13:41:00,32.3,15.3,30.38,North,353,1.0,1.0,49,0.00,,,0.00,Wunderground v.1.15,2013-01-17 19:41:00,
2013-01-17 13:47:00,32.5,15.4,30.39,North,359,1.0,1.0,49,0.00,,,0.00,Wunderground v.1.15,2013-01-17 19:47:00,
2013-01-17 13:53:00,32.5,15.4,30.39,North,356,1.0,1.0,49,0.00,,,0.00,Wunderground v.1.15,2013-01-17 19:53:00,
2013-01-17 14:00:00,32.8,15.7,30.38,NW,320,0.0,1.0,49,0.00,,,0.00,Wunderground v.1.15,2013-01-17 20:00:00,
2013-01-17 14:05:00,32.9,15.8,30.38,NNW,333,2.0,2.0,49,0.00,,,0.00,Wunderground v.1.15,2013-01-17 20:05:00,
2013-01-17 14:11:00,33.1,-99.9,30.38,NNW,335,1.0,1.0,255,0.00,,,0.00,Wunderground v.1.15,2013-01-17 20:11:00,
2013-01-17 14:17:00,33.5,-99.9,30.38,NW,312,0.0,4.0,255,0.00,,,0.00,Wunderground v.1.15,2013-01-17 20:17:00,
2013-01-17 14:23:00,33.2,15.6,30.38,NNW,347,1.0,1.0,48,0.00,,,0.00,Wunderground v.1.15,2013-01-17 20:23:00,
2013-01-17 14:30:00,33.4,16.3,30.38,NNW,342,1.0,2.0,49,0.00,,,0.00,Wunderground v.1.15,2013-01-17 20:30:00,
2013-01-17 14:35:00,33.2,15.6,30.38,NNW,335,1.0,5.0,48,0.00,,,0.00,Wunderground v.1.15,2013-01-17 20:35:00,
2013-01-17 14:41:00,33.1,16.0,30.38,NNW,343,1.0,1.0,49,0.00,,,0.00,Wunderground v.1.15,2013-01-17 20:41:00,
2013-01-17 14:47:00,33.5,16.4,30.38,North,352,1.0,1.0,49,0.00,,,0.00,Wunderground v.1.15,2013-01-17 20:47:00,
2013-01-17 14:53:00,33.2,16.5,30.38,NW,326,1.0,1.0,50,0.00,,,0.00,Wunderground v.1.15,2013-01-17 20:53:00,
2013-01-17 14:59:00,32.6,15.5,30.39,NNW,343,1.0,5.0,49,0.00,,,0.00,Wunderground v.1.15,2013-01-17 20:59:00,
2013-01-17 15:05:00,32.3,16.2,30.39,NW,311,1.0,1.0,51,0.00,,,0.00,Wunderground v.1.15,2013-01-17 21:05:00,
2013-01-17 15:11:00,32.2,16.1,30.39,North,357,1.0,1.0,51,0.00,,,0.00,Wunderground v.1.15,2013-01-17 21:11:00,
2013-01-17 15:17:00,32.1,16.0,30.39,NW,320,0.0,1.0,51,0.00,,,0.00,Wunderground v.1.15,2013-01-17 21:17:00,
2013-01-17 15:23:00,32.1,16.0,30.39,NNW,328,1.0,6.0,51,0.00,,,0.00,Wunderground v.1.15,2013-01-17 21:23:00,
2013-01-17 15:30:00,31.8,16.2,30.40,NW,313,0.0,6.0,52,0.00,,,0.00,Wunderground v.1.15,2013-01-17 21:30:00,
2013-01-17 15:35:00,31.8,15.7,30.40,WNW,294,0.0,3.0,51,0.00,,,0.00,Wunderground v.1.15,2013-01-17 21:35:00,
2013-01-17 15:41:00,31.9,15.8,30.40,NNW,329,0.0,0.0,51,0.00,,,0.00,Wunderground v.1.15,2013-01-17 21:41:00,
2013-01-17 15:47:00,32.1,16.0,30.39,NNW,337,1.0,3.0,51,0.00,,,0.00,Wunderground v.1.15,2013-01-17 21:47:00,
2013-01-17 15:53:00,32.1,-99.9,30.39,NW,316,1.0,1.0,255,0.00,,,0.00,Wunderground v.1.15,2013-01-17 21:53:00,
2013-01-17 16:00:00,31.9,15.8,30.39,NW,313,0.0,1.0,51,0.00,,,0.00,Wunderground v.1.15,2013-01-17 22:00:00,
2013-01-17 16:05:00,31.6,15.5,30.39,NW,309,1.0,3.0,51,0.00,,,0.00,Wunderground v.1.15,2013-01-17 22:05:00,
2013-01-17 16:11:00,31.2,15.6,30.39,NW,325,0.0,0.0,52,0.00,,,0.00,Wunderground v.1.15,2013-01-17 22:11:00,
2013-01-17 16:17:00,31.0,16.3,30.40,NW,325,0.0,3.0,54,0.00,,,0.00,Wunderground v.1.15,2013-01-17 22:17:00,
2013-01-17 16:23:00,30.7,16.4,30.40,WNW,295,0.0,0.0,55,0.00,,,0.00,Wunderground v.1.15,2013-01-17 22:23:00,
2013-01-17 16:30:00,30.3,16.9,30.40,NW,312,0.0,0.0,57,0.00,,,0.00,Wunderground v.1.15,2013-01-17 22:30:00,
2013-01-17 16:35:00,30.0,16.6,30.40,NW,306,0.0,0.0,57,0.00,,,0.00,Wunderground v.1.15,2013-01-17 22:35:00,
2013-01-17 16:41:00,29.7,17.1,30.40,NW,315,0.0,0.0,59,0.00,,,0.00,Wunderground v.1.15,2013-01-17 22:41:00,
2013-01-17 16:47:00,29.4,17.2,30.41,West,277,0.0,1.0,60,0.00,,,0.00,Wunderground v.1.15,2013-01-17 22:47:00,
2013-01-17 16:53:00,29.1,17.3,30.41,West,274,0.0,0.0,61,0.00,,,0.00,Wunderground v.1.15,2013-01-17 22:53:00,
2013-01-17 17:00:00,28.7,16.9,30.41,West,275,0.0,0.0,61,0.00,,,0.00,Wunderground v.1.15,2013-01-17 23:00:00,
2013-01-17 17:05:00,28.4,16.7,30.41,West,275,0.0,0.0,61,0.00,,,0.00,Wunderground v.1.15,2013-01-17 23:05:00,
2013-01-17 17:11:00,28.1,16.7,30.41,WNW,301,0.0,0.0,62,0.00,,,0.00,Wunderground v.1.15,2013-01-17 23:11:00,
2013-01-17 17:17:00,27.9,16.9,30.41,WNW,292,0.0,0.0,63,0.00,,,0.00,Wunderground v.1.15,2013-01-17 23:17:00,
2013-01-17 17:23:00,27.6,16.6,30.41,WNW,288,0.0,0.0,63,0.00,,,0.00,Wunderground v.1.15,2013-01-17 23:23:00,
2013-01-17 17:31:00,27.2,17.0,30.42,WNW,285,0.0,0.0,65,0.00,,,0.00,Wunderground v.1.15,2013-01-17 23:31:00,
2013-01-17 17:37:00,26.9,17.0,30.42,WNW,285,0.0,0.0,66,0.00,,,0.00,Wunderground v.1.15,2013-01-17 23:37:00,
2013-01-17 17:43:00,26.6,17.1,30.42,WNW,285,0.0,0.0,67,0.00,,,0.00,Wunderground v.1.15,2013-01-17 23:43:00,
2013-01-17 17:51:00,26.3,16.8,30.42,WNW,285,0.0,0.0,67,0.00,,,0.00,Wunderground v.1.15,2013-01-17 23:51:00,
2013-01-17 17:57:00,26.1,16.6,30.42,WNW,285,0.0,0.0,67,0.00,,,0.00,Wunderground v.1.15,2013-01-17 23:57:00,
2013-01-17 18:03:00,25.8,16.3,30.42,WNW,284,0.0,0.0,67,0.00,,,0.00,Wunderground v.1.15,2013-01-18 00:03:00,
2013-01-17 18:11:00,25.5,16.1,30.42,West,280,0.0,0.0,67,0.00,,,0.00,Wunderground v.1.15,2013-01-18 00:11:00,
2013-01-17 18:17:00,25.4,16.0,30.43,West,277,0.0,0.0,67,0.00,,,0.00,Wunderground v.1.15,2013-01-18 00:17:00,
2013-01-17 18:23:00,25.2,15.8,30.43,West,277,0.0,0.0,67,0.00,,,0.00,Wunderground v.1.15,2013-01-18 00:23:00,
2013-01-17 18:30:00,25.1,15.7,30.43,West,277,0.0,0.0,67,0.00,,,0.00,Wunderground v.1.15,2013-01-18 00:30:00,
2013-01-17 18:35:00,25.0,15.6,30.43,West,277,0.0,0.0,67,0.00,,,0.00,Wunderground v.1.15,2013-01-18 00:35:00,
2013-01-17 18:41:00,24.8,15.7,30.43,West,277,0.0,0.0,68,0.00,,,0.00,Wunderground v.1.15,2013-01-18 00:41:00,
2013-01-17 18:47:00,24.5,15.4,30.43,West,277,0.0,0.0,68,0.00,,,0.00,Wunderground v.1.15,2013-01-18 00:47:00,
2013-01-17 18:53:00,24.2,15.5,30.43,West,277,0.0,0.0,69,0.00,,,0.00,Wunderground v.1.15,2013-01-18 00:53:00,
2013-01-17 19:01:00,23.6,15.9,30.44,West,277,0.0,0.0,72,0.00,,,0.00,Wunderground v.1.15,2013-01-18 01:01:00,
2013-01-17 19:07:00,23.3,15.9,30.44,West,277,0.0,0.0,73,0.00,,,0.00,Wunderground v.1.15,2013-01-18 01:07:00,
2013-01-17 19:13:00,23.0,15.6,30.44,West,277,0.0,0.0,73,0.00,,,0.00,Wunderground v.1.15,2013-01-18 01:13:00,
2013-01-17 19:20:00,22.9,15.5,30.45,West,278,0.0,0.0,73,0.00,,,0.00,Wunderground v.1.15,2013-01-18 01:20:00,
2013-01-17 19:27:00,22.9,15.5,30.45,WNW,289,0.0,0.0,73,0.00,,,0.00,Wunderground v.1.15,2013-01-18 01:27:00,
2013-01-17 19:33:00,22.7,15.3,30.45,WNW,289,0.0,0.0,73,0.00,,,0.00,Wunderground v.1.15,2013-01-18 01:33:00,
2013-01-17 19:40:00,22.7,15.3,30.45,WNW,289,0.0,0.0,73,0.00,,,0.00,Wunderground v.1.15,2013-01-18 01:40:00,
2013-01-17 19:45:00,22.7,15.3,30.46,WNW,289,0.0,0.0,73,0.00,,,0.00,Wunderground v.1.15,2013-01-18 01:45:00,
2013-01-17 19:51:00,22.6,15.2,30.46,WNW,289,0.0,0.0,73,0.00,,,0.00,Wunderground v.1.15,2013-01-18 01:51:00,
2013-01-17 19:57:00,22.4,15.1,30.46,WNW,289,0.0,0.0,73,0.00,,,0.00,Wunderground v.1.15,2013-01-18 01:57:00,
2013-01-17 20:03:00,22.4,15.1,30.45,WNW,289,0.0,0.0,73,0.00,,,0.00,Wunderground v.1.15,2013-01-18 02:03:00,
2013-01-17 20:11:00,22.1,15.1,30.45,WNW,289,0.0,0.0,74,0.00,,,0.00,Wunderground v.1.15,2013-01-18 02:11:00,
2013-01-17 20:17:00,21.9,15.2,30.45,WNW,289,0.0,0.0,75,0.00,,,0.00,Wunderground v.1.15,2013-01-18 02:17:00,
2013-01-17 20:23:00,21.8,15.1,30.45,WNW,289,0.0,0.0,75,0.00,,,0.00,Wunderground v.1.15,2013-01-18 02:23:00,
2013-01-17 20:31:00,21.8,15.4,30.45,WNW,289,0.0,0.0,76,0.00,,,0.00,Wunderground v.1.15,2013-01-18 02:31:00,
2013-01-17 20:37:00,21.8,15.4,30.45,WNW,289,0.0,0.0,76,0.00,,,0.00,Wunderground v.1.15,2013-01-18 02:37:00,
2013-01-17 20:43:00,21.6,15.2,30.45,WNW,289,0.0,0.0,76,0.00,,,0.00,Wunderground v.1.15,2013-01-18 02:43:00,
2013-01-17 20:50:00,21.3,14.9,30.45,WNW,289,0.0,0.0,76,0.00,,,0.00,Wunderground v.1.15,2013-01-18 02:50:00,
2013-01-17 20:55:00,21.2,15.1,30.45,WNW,289,0.0,0.0,77,0.00,,,0.00,Wunderground v.1.15,2013-01-18 02:55:00,
2013-01-17 21:01:00,21.0,14.9,30.45,WNW,289,0.0,0.0,77,0.00,,,0.00,Wunderground v.1.15,2013-01-18 03:01:00,
2013-01-17 21:07:00,20.8,14.7,30.45,WNW,289,0.0,0.0,77,0.00,,,0.00,Wunderground v.1.15,2013-01-18 03:07:00,
2013-01-17 21:13:00,20.7,14.6,30.45,WNW,289,0.0,0.0,77,0.00,,,0.00,Wunderground v.1.15,2013-01-18 03:13:00,
2013-01-17 21:20:00,20.4,14.6,30.45,WNW,289,0.0,0.0,78,0.00,,,0.00,Wunderground v.1.15,2013-01-18 03:20:00,
2013-01-17 21:25:00,20.2,14.4,30.45,WNW,289,0.0,0.0,78,0.00,,,0.00,Wunderground v.1.15,2013-01-18 03:25:00,
2013-01-17 21:31:00,20.0,14.5,30.46,WNW,289,0.0,0.0,79,0.00,,,0.00,Wunderground v.1.15,2013-01-18 03:31:00,
2013-01-17 21:37:00,20.0,14.8,30.46,WNW,289,0.0,0.0,80,0.00,,,0.00,Wunderground v.1.15,2013-01-18 03:37:00,
2013-01-17 21:43:00,19.9,14.7,30.46,WNW,289,0.0,0.0,80,0.00,,,0.00,Wunderground v.1.15,2013-01-18 03:43:00,
2013-01-17 21:50:00,19.7,14.5,30.45,WNW,289,0.0,0.0,80,0.00,,,0.00,Wunderground v.1.15,2013-01-18 03:50:00,
2013-01-17 21:57:00,19.7,14.8,30.45,WNW,289,0.0,0.0,81,0.00,,,0.00,Wunderground v.1.15,2013-01-18 03:57:00,
2013-01-17 22:03:00,19.7,14.8,30.45,WNW,289,0.0,0.0,81,0.00,,,0.00,Wunderground v.1.15,2013-01-18 04:03:00,
2013-01-17 22:11:00,19.6,14.7,30.45,WNW,289,0.0,0.0,81,0.00,,,0.00,Wunderground v.1.15,2013-01-18 04:11:00,
2013-01-17 22:17:00,19.4,14.8,30.45,WNW,289,0.0,0.0,82,0.00,,,0.00,Wunderground v.1.15,2013-01-18 04:17:00,
2013-01-17 22:23:00,19.6,15.0,30.45,WNW,289,0.0,0.0,82,0.00,,,0.00,Wunderground v.1.15,2013-01-18 04:23:00,
2013-01-17 22:30:00,19.4,14.8,30.45,WNW,289,0.0,0.0,82,0.00,,,0.00,Wunderground v.1.15,2013-01-18 04:30:00,
2013-01-17 22:37:00,19.1,14.5,30.45,WNW,289,0.0,0.0,82,0.00,,,0.00,Wunderground v.1.15,2013-01-18 04:37:00,
2013-01-17 22:43:00,18.9,14.3,30.45,WNW,289,0.0,0.0,82,0.00,,,0.00,Wunderground v.1.15,2013-01-18 04:43:00,
2013-01-17 22:50:00,18.8,14.2,30.45,WNW,289,0.0,0.0,82,0.00,,,0.00,Wunderground v.1.15,2013-01-18 04:50:00,
2013-01-17 22:55:00,18.6,14.3,30.45,WNW,289,0.0,0.0,83,0.00,,,0.00,Wunderground v.1.15,2013-01-18 04:55:00,
2013-01-17 23:00:00,18.6,14.3,30.46,WNW,289,0.0,0.0,83,0.00,,,0.00,Wunderground v.1.15,2013-01-18 05:00:00,
2013-01-17 23:03:00,18.6,14.6,30.46,WNW,289,0.0,0.0,84,0.00,,,0.00,Wunderground v.1.15,2013-01-18 05:03:00,
2013-01-17 23:10:00,18.8,14.8,30.46,WNW,289,0.0,0.0,84,0.00,,,0.00,Wunderground v.1.15,2013-01-18 05:10:00,
2013-01-17 23:13:00,18.9,14.9,30.46,WNW,289,0.0,0.0,84,0.00,,,0.00,Wunderground v.1.15,2013-01-18 05:13:00,
2013-01-17 23:21:00,18.8,14.8,30.46,WNW,289,0.0,0.0,84,0.00,,,0.00,Wunderground v.1.15,2013-01-18 05:21:00,
2013-01-17 23:27:00,18.8,14.8,30.46,WNW,289,0.0,0.0,84,0.00,,,0.00,Wunderground v.1.15,2013-01-18 05:27:00,
2013-01-17 23:33:00,18.8,14.8,30.46,WNW,289,0.0,0.0,84,0.00,,,0.00,Wunderground v.1.15,2013-01-18 05:33:00,
2013-01-17 23:40:00,18.8,14.8,30.46,WNW,289,0.0,0.0,84,0.00,,,0.00,Wunderground v.1.15,2013-01-18 05:40:00,
2013-01-17 23:47:00,18.8,14.8,30.46,WNW,289,0.0,0.0,84,0.00,,,0.00,Wunderground v.1.15,2013-01-18 05:47:00,
2013-01-17 23:53:00,18.9,14.9,30.46,WNW,289,0.0,0.0,84,0.00,,,0.00,Wunderground v.1.15,2013-01-18 05:53:00,